sensor_id;sensor_type;location;lat;lon;timestamp;P1;durP1;ratioP1;P2;durP2;ratioP2
74229;SDS011;62589;12.568;99.958;2024-01-25T00:01:52;16.10;;;11.73;;
74229;SDS011;62589;12.568;99.958;2024-01-25T00:04:19;17.13;;;12.35;;
74229;SDS011;62589;12.568;99.958;2024-01-25T00:06:46;18.23;;;12.40;;
74229;SDS011;62589;12.568;99.958;2024-01-25T00:09:12;17.17;;;11.90;;
74229;SDS011;62589;12.568;99.958;2024-01-25T00:11:38;19.73;;;12.15;;
74229;SDS011;62589;12.568;99.958;2024-01-25T00:14:05;14.82;;;11.57;;
74229;SDS011;62589;12.568;99.958;2024-01-25T00:16:31;17.13;;;11.77;;
74229;SDS011;62589;12.568;99.958;2024-01-25T00:18:58;16.40;;;12.30;;
74229;SDS011;62589;12.568;99.958;2024-01-25T00:21:24;14.70;;;11.50;;
74229;SDS011;62589;12.568;99.958;2024-01-25T00:23:51;15.80;;;11.32;;
74229;SDS011;62589;12.568;99.958;2024-01-25T00:26:17;16.85;;;12.13;;
74229;SDS011;62589;12.568;99.958;2024-01-25T00:28:44;20.10;;;12.50;;
74229;SDS011;62589;12.568;99.958;2024-01-25T00:31:10;15.40;;;11.13;;
74229;SDS011;62589;12.568;99.958;2024-01-25T00:33:37;19.08;;;12.05;;
74229;SDS011;62589;12.568;99.958;2024-01-25T00:36:03;15.82;;;11.55;;
74229;SDS011;62589;12.568;99.958;2024-01-25T00:38:30;16.17;;;11.50;;
74229;SDS011;62589;12.568;99.958;2024-01-25T00:40:57;19.95;;;12.43;;
74229;SDS011;62589;12.568;99.958;2024-01-25T00:43:23;16.23;;;12.00;;
74229;SDS011;62589;12.568;99.958;2024-01-25T00:45:50;19.25;;;11.88;;
74229;SDS011;62589;12.568;99.958;2024-01-25T00:48:17;17.90;;;11.27;;
74229;SDS011;62589;12.568;99.958;2024-01-25T00:50:44;18.95;;;12.38;;
74229;SDS011;62589;12.568;99.958;2024-01-25T00:53:11;18.17;;;11.68;;
74229;SDS011;62589;12.568;99.958;2024-01-25T00:55:37;22.20;;;12.57;;
74229;SDS011;62589;12.568;99.958;2024-01-25T00:58:04;17.70;;;11.73;;
74229;SDS011;62589;12.568;99.958;2024-01-25T01:00:31;17.65;;;11.77;;
74229;SDS011;62589;12.568;99.958;2024-01-25T01:02:58;17.45;;;11.48;;
74229;SDS011;62589;12.568;99.958;2024-01-25T01:05:28;20.25;;;12.32;;
74229;SDS011;62589;12.568;99.958;2024-01-25T01:07:55;17.98;;;11.57;;
74229;SDS011;62589;12.568;99.958;2024-01-25T01:10:22;16.95;;;12.00;;
74229;SDS011;62589;12.568;99.958;2024-01-25T01:12:48;16.85;;;11.30;;
74229;SDS011;62589;12.568;99.958;2024-01-25T01:15:15;15.50;;;11.57;;
74229;SDS011;62589;12.568;99.958;2024-01-25T01:17:41;18.58;;;11.25;;
74229;SDS011;62589;12.568;99.958;2024-01-25T01:20:08;18.00;;;11.35;;
74229;SDS011;62589;12.568;99.958;2024-01-25T01:22:35;15.60;;;11.35;;
74229;SDS011;62589;12.568;99.958;2024-01-25T01:25:01;17.63;;;11.45;;
74229;SDS011;62589;12.568;99.958;2024-01-25T01:27:28;18.45;;;11.48;;
74229;SDS011;62589;12.568;99.958;2024-01-25T01:29:54;19.92;;;12.60;;
74229;SDS011;62589;12.568;99.958;2024-01-25T01:32:21;19.98;;;11.18;;
74229;SDS011;62589;12.568;99.958;2024-01-25T01:34:47;17.92;;;11.88;;
74229;SDS011;62589;12.568;99.958;2024-01-25T01:37:14;16.27;;;10.50;;
74229;SDS011;62589;12.568;99.958;2024-01-25T01:39:40;18.35;;;11.13;;
74229;SDS011;62589;12.568;99.958;2024-01-25T01:42:06;18.98;;;12.13;;
74229;SDS011;62589;12.568;99.958;2024-01-25T01:44:33;18.50;;;11.65;;
74229;SDS011;62589;12.568;99.958;2024-01-25T01:47:00;20.25;;;12.25;;
74229;SDS011;62589;12.568;99.958;2024-01-25T01:49:26;15.48;;;11.55;;
74229;SDS011;62589;12.568;99.958;2024-01-25T01:51:53;16.83;;;12.25;;
74229;SDS011;62589;12.568;99.958;2024-01-25T01:54:20;17.10;;;10.73;;
74229;SDS011;62589;12.568;99.958;2024-01-25T01:56:47;20.60;;;11.40;;
74229;SDS011;62589;12.568;99.958;2024-01-25T01:59:13;18.33;;;12.35;;
74229;SDS011;62589;12.568;99.958;2024-01-25T02:01:41;15.93;;;12.05;;
74229;SDS011;62589;12.568;99.958;2024-01-25T02:04:08;18.63;;;12.00;;
74229;SDS011;62589;12.568;99.958;2024-01-25T02:06:34;19.15;;;12.68;;
74229;SDS011;62589;12.568;99.958;2024-01-25T02:09:01;18.92;;;11.75;;
74229;SDS011;62589;12.568;99.958;2024-01-25T02:11:28;18.40;;;12.43;;
74229;SDS011;62589;12.568;99.958;2024-01-25T02:13:55;15.90;;;11.15;;
74229;SDS011;62589;12.568;99.958;2024-01-25T02:16:21;17.05;;;11.73;;
74229;SDS011;62589;12.568;99.958;2024-01-25T02:18:49;16.27;;;11.73;;
74229;SDS011;62589;12.568;99.958;2024-01-25T02:21:15;16.73;;;11.63;;
74229;SDS011;62589;12.568;99.958;2024-01-25T02:23:42;21.27;;;11.85;;
74229;SDS011;62589;12.568;99.958;2024-01-25T02:26:08;14.82;;;10.18;;
74229;SDS011;62589;12.568;99.958;2024-01-25T02:28:35;19.17;;;12.23;;
74229;SDS011;62589;12.568;99.958;2024-01-25T02:31:01;15.52;;;10.48;;
74229;SDS011;62589;12.568;99.958;2024-01-25T02:33:28;14.50;;;10.75;;
74229;SDS011;62589;12.568;99.958;2024-01-25T02:35:55;22.63;;;11.63;;
74229;SDS011;62589;12.568;99.958;2024-01-25T02:38:22;19.38;;;10.52;;
74229;SDS011;62589;12.568;99.958;2024-01-25T02:40:49;14.18;;;10.30;;
74229;SDS011;62589;12.568;99.958;2024-01-25T02:43:15;16.33;;;10.45;;
74229;SDS011;62589;12.568;99.958;2024-01-25T02:45:42;15.32;;;10.10;;
74229;SDS011;62589;12.568;99.958;2024-01-25T02:48:08;18.25;;;10.82;;
74229;SDS011;62589;12.568;99.958;2024-01-25T02:50:35;15.50;;;10.45;;
74229;SDS011;62589;12.568;99.958;2024-01-25T02:53:01;18.40;;;11.05;;
74229;SDS011;62589;12.568;99.958;2024-01-25T02:55:28;15.30;;;10.00;;
74229;SDS011;62589;12.568;99.958;2024-01-25T02:57:54;13.63;;;9.95;;
74229;SDS011;62589;12.568;99.958;2024-01-25T03:00:20;16.80;;;10.73;;
74229;SDS011;62589;12.568;99.958;2024-01-25T03:02:47;17.02;;;10.70;;
74229;SDS011;62589;12.568;99.958;2024-01-25T03:05:13;21.15;;;11.90;;
74229;SDS011;62589;12.568;99.958;2024-01-25T03:07:40;18.52;;;10.63;;
74229;SDS011;62589;12.568;99.958;2024-01-25T03:10:07;15.35;;;10.40;;
74229;SDS011;62589;12.568;99.958;2024-01-25T03:12:34;13.77;;;10.40;;
74229;SDS011;62589;12.568;99.958;2024-01-25T03:15:00;14.95;;;10.65;;
74229;SDS011;62589;12.568;99.958;2024-01-25T03:17:26;16.73;;;11.07;;
74229;SDS011;62589;12.568;99.958;2024-01-25T03:19:53;17.35;;;11.00;;
74229;SDS011;62589;12.568;99.958;2024-01-25T03:22:19;15.02;;;10.80;;
74229;SDS011;62589;12.568;99.958;2024-01-25T03:24:47;18.90;;;11.02;;
74229;SDS011;62589;12.568;99.958;2024-01-25T03:27:14;18.88;;;10.93;;
74229;SDS011;62589;12.568;99.958;2024-01-25T03:29:41;26.17;;;12.07;;
74229;SDS011;62589;12.568;99.958;2024-01-25T03:32:09;18.50;;;11.38;;
74229;SDS011;62589;12.568;99.958;2024-01-25T03:34:36;16.30;;;11.10;;
74229;SDS011;62589;12.568;99.958;2024-01-25T03:37:02;15.30;;;10.48;;
74229;SDS011;62589;12.568;99.958;2024-01-25T03:39:29;23.65;;;11.50;;
74229;SDS011;62589;12.568;99.958;2024-01-25T03:41:55;14.65;;;9.75;;
74229;SDS011;62589;12.568;99.958;2024-01-25T03:44:22;14.10;;;10.43;;
74229;SDS011;62589;12.568;99.958;2024-01-25T03:46:49;19.33;;;11.10;;
74229;SDS011;62589;12.568;99.958;2024-01-25T03:49:15;13.57;;;10.82;;
74229;SDS011;62589;12.568;99.958;2024-01-25T03:51:42;15.50;;;10.93;;
74229;SDS011;62589;12.568;99.958;2024-01-25T03:54:08;18.00;;;11.60;;
74229;SDS011;62589;12.568;99.958;2024-01-25T03:56:35;18.38;;;12.10;;
74229;SDS011;62589;12.568;99.958;2024-01-25T03:59:01;15.77;;;10.95;;
74229;SDS011;62589;12.568;99.958;2024-01-25T04:01:28;14.20;;;10.32;;
74229;SDS011;62589;12.568;99.958;2024-01-25T04:03:55;23.63;;;12.15;;
74229;SDS011;62589;12.568;99.958;2024-01-25T04:06:21;12.82;;;10.07;;
74229;SDS011;62589;12.568;99.958;2024-01-25T04:08:48;16.20;;;10.48;;
74229;SDS011;62589;12.568;99.958;2024-01-25T04:11:14;18.70;;;11.10;;
74229;SDS011;62589;12.568;99.958;2024-01-25T04:13:41;17.88;;;10.48;;
74229;SDS011;62589;12.568;99.958;2024-01-25T04:16:08;15.43;;;10.60;;
74229;SDS011;62589;12.568;99.958;2024-01-25T04:18:38;14.40;;;10.23;;
74229;SDS011;62589;12.568;99.958;2024-01-25T04:21:04;16.88;;;10.75;;
74229;SDS011;62589;12.568;99.958;2024-01-25T04:23:31;12.23;;;9.40;;
74229;SDS011;62589;12.568;99.958;2024-01-25T04:25:57;15.57;;;9.82;;
74229;SDS011;62589;12.568;99.958;2024-01-25T04:28:24;17.00;;;10.60;;
74229;SDS011;62589;12.568;99.958;2024-01-25T04:30:50;16.05;;;11.13;;
74229;SDS011;62589;12.568;99.958;2024-01-25T04:33:17;17.60;;;10.88;;
74229;SDS011;62589;12.568;99.958;2024-01-25T04:35:43;17.83;;;10.95;;
74229;SDS011;62589;12.568;99.958;2024-01-25T04:38:10;12.55;;;9.77;;
74229;SDS011;62589;12.568;99.958;2024-01-25T04:40:37;13.32;;;9.98;;
74229;SDS011;62589;12.568;99.958;2024-01-25T04:43:03;16.00;;;10.60;;
74229;SDS011;62589;12.568;99.958;2024-01-25T04:45:30;14.65;;;10.82;;
74229;SDS011;62589;12.568;99.958;2024-01-25T04:47:57;16.05;;;10.52;;
74229;SDS011;62589;12.568;99.958;2024-01-25T04:50:23;14.05;;;9.60;;
74229;SDS011;62589;12.568;99.958;2024-01-25T04:52:49;22.73;;;11.43;;
74229;SDS011;62589;12.568;99.958;2024-01-25T04:55:16;14.18;;;10.63;;
74229;SDS011;62589;12.568;99.958;2024-01-25T04:57:42;14.40;;;10.57;;
74229;SDS011;62589;12.568;99.958;2024-01-25T05:00:09;18.05;;;10.38;;
74229;SDS011;62589;12.568;99.958;2024-01-25T05:02:36;14.52;;;9.40;;
74229;SDS011;62589;12.568;99.958;2024-01-25T05:05:03;15.90;;;10.95;;
74229;SDS011;62589;12.568;99.958;2024-01-25T05:07:29;15.38;;;10.27;;
74229;SDS011;62589;12.568;99.958;2024-01-25T05:09:57;17.60;;;11.05;;
74229;SDS011;62589;12.568;99.958;2024-01-25T05:12:23;14.52;;;10.75;;
74229;SDS011;62589;12.568;99.958;2024-01-25T05:14:49;17.17;;;9.88;;
74229;SDS011;62589;12.568;99.958;2024-01-25T05:17:16;13.82;;;9.57;;
74229;SDS011;62589;12.568;99.958;2024-01-25T05:19:42;12.85;;;9.60;;
74229;SDS011;62589;12.568;99.958;2024-01-25T05:22:09;13.93;;;9.57;;
74229;SDS011;62589;12.568;99.958;2024-01-25T05:24:38;14.20;;;9.60;;
74229;SDS011;62589;12.568;99.958;2024-01-25T05:27:08;14.90;;;9.23;;
74229;SDS011;62589;12.568;99.958;2024-01-25T05:29:35;18.02;;;10.32;;
74229;SDS011;62589;12.568;99.958;2024-01-25T05:32:01;14.73;;;9.85;;
74229;SDS011;62589;12.568;99.958;2024-01-25T05:34:27;14.10;;;10.10;;
74229;SDS011;62589;12.568;99.958;2024-01-25T05:36:54;14.25;;;9.57;;
74229;SDS011;62589;12.568;99.958;2024-01-25T05:39:20;12.68;;;9.20;;
74229;SDS011;62589;12.568;99.958;2024-01-25T05:41:47;12.10;;;10.10;;
74229;SDS011;62589;12.568;99.958;2024-01-25T05:44:13;14.00;;;9.65;;
74229;SDS011;62589;12.568;99.958;2024-01-25T05:46:40;16.05;;;9.43;;
74229;SDS011;62589;12.568;99.958;2024-01-25T05:49:06;15.45;;;10.68;;
74229;SDS011;62589;12.568;99.958;2024-01-25T05:51:33;18.65;;;9.65;;
74229;SDS011;62589;12.568;99.958;2024-01-25T05:54:01;15.07;;;9.20;;
74229;SDS011;62589;12.568;99.958;2024-01-25T05:56:27;13.15;;;9.70;;
74229;SDS011;62589;12.568;99.958;2024-01-25T05:58:54;15.30;;;9.90;;
74229;SDS011;62589;12.568;99.958;2024-01-25T06:01:20;14.75;;;9.90;;
74229;SDS011;62589;12.568;99.958;2024-01-25T06:03:47;15.48;;;10.20;;
74229;SDS011;62589;12.568;99.958;2024-01-25T06:06:13;14.73;;;9.75;;
74229;SDS011;62589;12.568;99.958;2024-01-25T06:08:40;17.13;;;10.75;;
74229;SDS011;62589;12.568;99.958;2024-01-25T06:11:06;16.05;;;9.65;;
74229;SDS011;62589;12.568;99.958;2024-01-25T06:13:35;16.85;;;9.60;;
74229;SDS011;62589;12.568;99.958;2024-01-25T06:16:01;17.65;;;10.52;;
74229;SDS011;62589;12.568;99.958;2024-01-25T06:18:28;11.82;;;8.70;;
74229;SDS011;62589;12.568;99.958;2024-01-25T06:20:54;13.10;;;9.50;;
74229;SDS011;62589;12.568;99.958;2024-01-25T06:23:20;15.82;;;10.85;;
74229;SDS011;62589;12.568;99.958;2024-01-25T06:25:47;13.65;;;10.18;;
74229;SDS011;62589;12.568;99.958;2024-01-25T06:28:13;11.35;;;8.82;;
74229;SDS011;62589;12.568;99.958;2024-01-25T06:30:40;14.00;;;9.20;;
74229;SDS011;62589;12.568;99.958;2024-01-25T06:33:06;12.32;;;9.40;;
74229;SDS011;62589;12.568;99.958;2024-01-25T06:35:33;16.15;;;9.60;;
74229;SDS011;62589;12.568;99.958;2024-01-25T06:37:59;12.00;;;9.18;;
74229;SDS011;62589;12.568;99.958;2024-01-25T06:40:26;17.05;;;10.48;;
74229;SDS011;62589;12.568;99.958;2024-01-25T06:42:52;14.80;;;10.18;;
74229;SDS011;62589;12.568;99.958;2024-01-25T06:45:19;14.63;;;11.32;;
74229;SDS011;62589;12.568;99.958;2024-01-25T06:47:45;15.88;;;11.32;;
74229;SDS011;62589;12.568;99.958;2024-01-25T06:50:12;16.17;;;10.90;;
74229;SDS011;62589;12.568;99.958;2024-01-25T06:52:38;14.75;;;10.73;;
74229;SDS011;62589;12.568;99.958;2024-01-25T06:55:05;16.20;;;11.13;;
74229;SDS011;62589;12.568;99.958;2024-01-25T06:57:31;13.45;;;10.63;;
74229;SDS011;62589;12.568;99.958;2024-01-25T06:59:58;17.88;;;11.50;;
74229;SDS011;62589;12.568;99.958;2024-01-25T07:02:24;12.05;;;9.70;;
74229;SDS011;62589;12.568;99.958;2024-01-25T07:04:51;16.13;;;10.27;;
74229;SDS011;62589;12.568;99.958;2024-01-25T07:07:19;17.80;;;11.43;;
74229;SDS011;62589;12.568;99.958;2024-01-25T07:09:45;15.10;;;10.65;;
74229;SDS011;62589;12.568;99.958;2024-01-25T07:12:12;14.60;;;10.93;;
74229;SDS011;62589;12.568;99.958;2024-01-25T07:14:38;13.88;;;10.57;;
74229;SDS011;62589;12.568;99.958;2024-01-25T07:17:05;16.55;;;11.82;;
74229;SDS011;62589;12.568;99.958;2024-01-25T07:19:32;18.27;;;11.23;;
74229;SDS011;62589;12.568;99.958;2024-01-25T07:21:58;17.90;;;11.02;;
74229;SDS011;62589;12.568;99.958;2024-01-25T07:24:28;17.35;;;11.38;;
74229;SDS011;62589;12.568;99.958;2024-01-25T07:26:54;16.45;;;11.20;;
74229;SDS011;62589;12.568;99.958;2024-01-25T07:29:21;18.42;;;11.50;;
74229;SDS011;62589;12.568;99.958;2024-01-25T07:31:53;15.15;;;11.27;;
74229;SDS011;62589;12.568;99.958;2024-01-25T07:34:20;14.60;;;11.15;;
74229;SDS011;62589;12.568;99.958;2024-01-25T07:36:46;17.25;;;12.98;;
74229;SDS011;62589;12.568;99.958;2024-01-25T07:39:23;15.63;;;10.88;;
74229;SDS011;62589;12.568;99.958;2024-01-25T07:41:49;17.55;;;12.68;;
74229;SDS011;62589;12.568;99.958;2024-01-25T07:44:17;17.13;;;11.50;;
74229;SDS011;62589;12.568;99.958;2024-01-25T07:46:44;16.02;;;11.20;;
74229;SDS011;62589;12.568;99.958;2024-01-25T07:49:11;16.30;;;11.70;;
74229;SDS011;62589;12.568;99.958;2024-01-25T07:51:46;19.08;;;11.60;;
74229;SDS011;62589;12.568;99.958;2024-01-25T07:54:21;15.52;;;11.20;;
74229;SDS011;62589;12.568;99.958;2024-01-25T07:56:48;14.60;;;11.82;;
74229;SDS011;62589;12.568;99.958;2024-01-25T07:59:15;16.63;;;10.95;;
74229;SDS011;62589;12.568;99.958;2024-01-25T08:01:41;13.70;;;11.32;;
74229;SDS011;62589;12.568;99.958;2024-01-25T08:04:08;15.65;;;11.73;;
74229;SDS011;62589;12.568;99.958;2024-01-25T08:06:34;16.35;;;12.00;;
74229;SDS011;62589;12.568;99.958;2024-01-25T08:09:01;14.73;;;10.82;;
74229;SDS011;62589;12.568;99.958;2024-01-25T08:11:28;15.30;;;11.25;;
74229;SDS011;62589;12.568;99.958;2024-01-25T08:13:54;14.10;;;10.82;;
74229;SDS011;62589;12.568;99.958;2024-01-25T08:16:21;18.45;;;10.90;;
74229;SDS011;62589;12.568;99.958;2024-01-25T08:18:47;16.05;;;11.23;;
74229;SDS011;62589;12.568;99.958;2024-01-25T08:21:14;16.67;;;11.73;;
74229;SDS011;62589;12.568;99.958;2024-01-25T08:23:41;17.15;;;10.32;;
74229;SDS011;62589;12.568;99.958;2024-01-25T08:26:08;14.15;;;10.38;;
74229;SDS011;62589;12.568;99.958;2024-01-25T08:28:41;18.48;;;11.55;;
74229;SDS011;62589;12.568;99.958;2024-01-25T08:31:11;14.45;;;11.90;;
74229;SDS011;62589;12.568;99.958;2024-01-25T08:33:38;15.98;;;11.25;;
74229;SDS011;62589;12.568;99.958;2024-01-25T08:36:10;18.17;;;11.80;;
74229;SDS011;62589;12.568;99.958;2024-01-25T08:38:37;17.05;;;11.95;;
74229;SDS011;62589;12.568;99.958;2024-01-25T08:41:03;17.30;;;12.18;;
74229;SDS011;62589;12.568;99.958;2024-01-25T08:43:30;17.00;;;11.35;;
74229;SDS011;62589;12.568;99.958;2024-01-25T08:45:56;17.63;;;12.43;;
74229;SDS011;62589;12.568;99.958;2024-01-25T08:48:23;18.20;;;12.13;;
74229;SDS011;62589;12.568;99.958;2024-01-25T08:50:50;19.55;;;12.93;;
74229;SDS011;62589;12.568;99.958;2024-01-25T08:53:19;14.93;;;11.88;;
74229;SDS011;62589;12.568;99.958;2024-01-25T08:55:53;18.33;;;12.73;;
74229;SDS011;62589;12.568;99.958;2024-01-25T08:58:20;15.98;;;11.40;;
74229;SDS011;62589;12.568;99.958;2024-01-25T09:00:46;20.08;;;12.65;;
74229;SDS011;62589;12.568;99.958;2024-01-25T09:03:14;15.43;;;11.32;;
74229;SDS011;62589;12.568;99.958;2024-01-25T09:05:41;16.65;;;10.95;;
74229;SDS011;62589;12.568;99.958;2024-01-25T09:08:13;15.75;;;11.05;;
74229;SDS011;62589;12.568;99.958;2024-01-25T09:10:40;14.75;;;10.90;;
74229;SDS011;62589;12.568;99.958;2024-01-25T09:13:10;16.60;;;11.50;;
74229;SDS011;62589;12.568;99.958;2024-01-25T09:15:36;15.00;;;11.10;;
74229;SDS011;62589;12.568;99.958;2024-01-25T09:18:03;15.70;;;10.70;;
74229;SDS011;62589;12.568;99.958;2024-01-25T09:20:30;18.73;;;12.07;;
74229;SDS011;62589;12.568;99.958;2024-01-25T09:22:56;15.10;;;11.52;;
74229;SDS011;62589;12.568;99.958;2024-01-25T09:25:23;15.73;;;11.30;;
74229;SDS011;62589;12.568;99.958;2024-01-25T09:27:49;14.82;;;10.98;;
74229;SDS011;62589;12.568;99.958;2024-01-25T09:30:15;19.35;;;11.05;;
74229;SDS011;62589;12.568;99.958;2024-01-25T09:32:42;15.88;;;10.88;;
74229;SDS011;62589;12.568;99.958;2024-01-25T09:35:09;14.23;;;10.65;;
74229;SDS011;62589;12.568;99.958;2024-01-25T09:37:35;16.90;;;10.65;;
74229;SDS011;62589;12.568;99.958;2024-01-25T09:40:02;14.27;;;10.38;;
74229;SDS011;62589;12.568;99.958;2024-01-25T09:42:29;14.32;;;10.73;;
74229;SDS011;62589;12.568;99.958;2024-01-25T09:44:55;17.27;;;10.88;;
74229;SDS011;62589;12.568;99.958;2024-01-25T09:47:22;14.20;;;10.07;;
74229;SDS011;62589;12.568;99.958;2024-01-25T09:49:49;14.65;;;10.48;;
74229;SDS011;62589;12.568;99.958;2024-01-25T09:52:16;20.83;;;12.48;;
74229;SDS011;62589;12.568;99.958;2024-01-25T09:54:45;18.85;;;12.52;;
74229;SDS011;62589;12.568;99.958;2024-01-25T09:57:15;19.42;;;12.80;;
74229;SDS011;62589;12.568;99.958;2024-01-25T09:59:45;17.33;;;11.55;;
74229;SDS011;62589;12.568;99.958;2024-01-25T10:02:11;19.08;;;12.73;;
74229;SDS011;62589;12.568;99.958;2024-01-25T10:04:38;16.67;;;12.00;;
74229;SDS011;62589;12.568;99.958;2024-01-25T10:07:04;19.25;;;11.80;;
74229;SDS011;62589;12.568;99.958;2024-01-25T10:09:37;16.33;;;11.48;;
74229;SDS011;62589;12.568;99.958;2024-01-25T10:12:05;14.82;;;10.75;;
74229;SDS011;62589;12.568;99.958;2024-01-25T10:14:32;17.20;;;11.73;;
74229;SDS011;62589;12.568;99.958;2024-01-25T10:17:00;18.15;;;12.05;;
74229;SDS011;62589;12.568;99.958;2024-01-25T10:19:26;21.40;;;13.00;;
74229;SDS011;62589;12.568;99.958;2024-01-25T10:21:53;18.02;;;12.20;;
74229;SDS011;62589;12.568;99.958;2024-01-25T10:24:20;17.10;;;12.18;;
74229;SDS011;62589;12.568;99.958;2024-01-25T10:26:48;17.83;;;11.77;;
74229;SDS011;62589;12.568;99.958;2024-01-25T10:29:15;18.55;;;11.43;;
74229;SDS011;62589;12.568;99.958;2024-01-25T10:32:02;17.83;;;11.43;;
74229;SDS011;62589;12.568;99.958;2024-01-25T10:34:40;18.17;;;10.77;;
74229;SDS011;62589;12.568;99.958;2024-01-25T10:37:08;14.88;;;10.95;;
74229;SDS011;62589;12.568;99.958;2024-01-25T10:39:39;15.73;;;11.50;;
74229;SDS011;62589;12.568;99.958;2024-01-25T10:42:07;18.35;;;11.70;;
74229;SDS011;62589;12.568;99.958;2024-01-25T10:44:33;15.77;;;11.25;;
74229;SDS011;62589;12.568;99.958;2024-01-25T10:47:00;15.85;;;11.48;;
74229;SDS011;62589;12.568;99.958;2024-01-25T10:49:27;15.32;;;11.07;;
74229;SDS011;62589;12.568;99.958;2024-01-25T10:51:54;16.58;;;11.10;;
74229;SDS011;62589;12.568;99.958;2024-01-25T10:54:21;15.93;;;11.57;;
74229;SDS011;62589;12.568;99.958;2024-01-25T10:56:48;15.05;;;11.02;;
74229;SDS011;62589;12.568;99.958;2024-01-25T10:59:15;17.33;;;12.13;;
74229;SDS011;62589;12.568;99.958;2024-01-25T11:01:46;18.02;;;11.52;;
74229;SDS011;62589;12.568;99.958;2024-01-25T11:04:17;16.02;;;11.38;;
74229;SDS011;62589;12.568;99.958;2024-01-25T11:06:47;21.20;;;11.20;;
74229;SDS011;62589;12.568;99.958;2024-01-25T11:09:20;17.17;;;11.90;;
74229;SDS011;62589;12.568;99.958;2024-01-25T11:11:47;15.10;;;11.52;;
74229;SDS011;62589;12.568;99.958;2024-01-25T11:14:14;16.33;;;11.50;;
74229;SDS011;62589;12.568;99.958;2024-01-25T11:16:47;15.85;;;10.90;;
74229;SDS011;62589;12.568;99.958;2024-01-25T11:19:21;15.50;;;12.13;;
74229;SDS011;62589;12.568;99.958;2024-01-25T11:21:48;14.90;;;11.40;;
74229;SDS011;62589;12.568;99.958;2024-01-25T11:24:16;16.83;;;11.77;;
74229;SDS011;62589;12.568;99.958;2024-01-25T11:26:43;14.93;;;12.05;;
74229;SDS011;62589;12.568;99.958;2024-01-25T11:29:12;15.85;;;11.98;;
74229;SDS011;62589;12.568;99.958;2024-01-25T11:31:43;17.50;;;11.57;;
74229;SDS011;62589;12.568;99.958;2024-01-25T11:34:11;14.13;;;11.27;;
74229;SDS011;62589;12.568;99.958;2024-01-25T11:36:38;19.15;;;12.35;;
74229;SDS011;62589;12.568;99.958;2024-01-25T11:39:05;15.82;;;11.40;;
74229;SDS011;62589;12.568;99.958;2024-01-25T11:41:35;17.20;;;11.32;;
74229;SDS011;62589;12.568;99.958;2024-01-25T11:44:02;15.55;;;11.55;;
74229;SDS011;62589;12.568;99.958;2024-01-25T11:46:31;16.27;;;12.05;;
74229;SDS011;62589;12.568;99.958;2024-01-25T11:48:58;17.02;;;11.70;;
74229;SDS011;62589;12.568;99.958;2024-01-25T11:51:25;17.90;;;12.07;;
74229;SDS011;62589;12.568;99.958;2024-01-25T11:53:51;19.33;;;11.65;;
74229;SDS011;62589;12.568;99.958;2024-01-25T11:56:26;16.33;;;12.10;;
74229;SDS011;62589;12.568;99.958;2024-01-25T11:58:54;16.13;;;12.05;;
74229;SDS011;62589;12.568;99.958;2024-01-25T12:01:22;16.42;;;12.32;;
74229;SDS011;62589;12.568;99.958;2024-01-25T12:03:53;16.02;;;11.13;;
74229;SDS011;62589;12.568;99.958;2024-01-25T12:06:20;18.20;;;12.68;;
74229;SDS011;62589;12.568;99.958;2024-01-25T12:08:46;17.92;;;12.85;;
74229;SDS011;62589;12.568;99.958;2024-01-25T12:11:17;17.77;;;13.20;;
74229;SDS011;62589;12.568;99.958;2024-01-25T12:13:44;19.13;;;13.23;;
74229;SDS011;62589;12.568;99.958;2024-01-25T12:16:11;18.77;;;12.90;;
74229;SDS011;62589;12.568;99.958;2024-01-25T12:18:40;19.52;;;13.05;;
74229;SDS011;62589;12.568;99.958;2024-01-25T12:21:08;21.42;;;14.07;;
74229;SDS011;62589;12.568;99.958;2024-01-25T12:23:36;22.58;;;12.85;;
74229;SDS011;62589;12.568;99.958;2024-01-25T12:26:04;15.57;;;12.23;;
74229;SDS011;62589;12.568;99.958;2024-01-25T12:28:32;16.45;;;12.90;;
74229;SDS011;62589;12.568;99.958;2024-01-25T12:30:59;19.90;;;13.07;;
74229;SDS011;62589;12.568;99.958;2024-01-25T12:33:28;20.60;;;14.05;;
74229;SDS011;62589;12.568;99.958;2024-01-25T12:35:55;19.88;;;13.27;;
74229;SDS011;62589;12.568;99.958;2024-01-25T12:38:22;21.00;;;12.77;;
74229;SDS011;62589;12.568;99.958;2024-01-25T12:40:49;20.23;;;13.02;;
74229;SDS011;62589;12.568;99.958;2024-01-25T12:43:16;20.52;;;13.65;;
74229;SDS011;62589;12.568;99.958;2024-01-25T12:45:43;21.88;;;14.80;;
74229;SDS011;62589;12.568;99.958;2024-01-25T12:48:11;22.67;;;14.32;;
74229;SDS011;62589;12.568;99.958;2024-01-25T12:50:37;27.23;;;15.68;;
74229;SDS011;62589;12.568;99.958;2024-01-25T12:53:04;24.38;;;15.07;;
74229;SDS011;62589;12.568;99.958;2024-01-25T12:55:32;25.27;;;16.55;;
74229;SDS011;62589;12.568;99.958;2024-01-25T12:57:59;26.65;;;16.17;;
74229;SDS011;62589;12.568;99.958;2024-01-25T13:00:25;26.77;;;16.63;;
74229;SDS011;62589;12.568;99.958;2024-01-25T13:02:52;27.70;;;16.38;;
74229;SDS011;62589;12.568;99.958;2024-01-25T13:05:19;26.13;;;16.20;;
74229;SDS011;62589;12.568;99.958;2024-01-25T13:07:46;22.42;;;15.88;;
74229;SDS011;62589;12.568;99.958;2024-01-25T13:10:13;26.33;;;15.75;;
74229;SDS011;62589;12.568;99.958;2024-01-25T13:12:40;21.42;;;15.32;;
74229;SDS011;62589;12.568;99.958;2024-01-25T13:15:07;29.67;;;17.00;;
74229;SDS011;62589;12.568;99.958;2024-01-25T13:17:34;27.30;;;16.23;;
74229;SDS011;62589;12.568;99.958;2024-01-25T13:20:02;24.98;;;16.25;;
74229;SDS011;62589;12.568;99.958;2024-01-25T13:22:31;22.80;;;16.38;;
74229;SDS011;62589;12.568;99.958;2024-01-25T13:25:01;22.45;;;15.93;;
74229;SDS011;62589;12.568;99.958;2024-01-25T13:27:29;27.13;;;16.58;;
74229;SDS011;62589;12.568;99.958;2024-01-25T13:29:56;23.40;;;15.50;;
74229;SDS011;62589;12.568;99.958;2024-01-25T13:32:22;22.98;;;16.35;;
74229;SDS011;62589;12.568;99.958;2024-01-25T13:34:49;21.85;;;16.05;;
74229;SDS011;62589;12.568;99.958;2024-01-25T13:37:16;23.58;;;15.40;;
74229;SDS011;62589;12.568;99.958;2024-01-25T13:39:43;24.75;;;14.70;;
74229;SDS011;62589;12.568;99.958;2024-01-25T13:42:09;21.70;;;14.57;;
74229;SDS011;62589;12.568;99.958;2024-01-25T13:44:36;23.60;;;15.98;;
74229;SDS011;62589;12.568;99.958;2024-01-25T13:47:04;20.52;;;14.90;;
74229;SDS011;62589;12.568;99.958;2024-01-25T13:49:30;26.80;;;15.95;;
74229;SDS011;62589;12.568;99.958;2024-01-25T13:51:59;24.05;;;14.73;;
74229;SDS011;62589;12.568;99.958;2024-01-25T13:54:28;20.52;;;14.02;;
74229;SDS011;62589;12.568;99.958;2024-01-25T13:56:55;21.08;;;14.13;;
74229;SDS011;62589;12.568;99.958;2024-01-25T13:59:22;20.30;;;14.38;;
74229;SDS011;62589;12.568;99.958;2024-01-25T14:01:51;17.95;;;13.65;;
74229;SDS011;62589;12.568;99.958;2024-01-25T14:04:17;19.67;;;13.85;;
74229;SDS011;62589;12.568;99.958;2024-01-25T14:06:44;23.15;;;14.35;;
74229;SDS011;62589;12.568;99.958;2024-01-25T14:09:11;22.15;;;14.85;;
74229;SDS011;62589;12.568;99.958;2024-01-25T14:11:37;20.90;;;14.43;;